createdAt,value
2018-10-17T00:01:52.851Z,18.30
2018-10-17T00:04:21.264Z,18.20
2018-10-17T00:06:50.883Z,18.20
2018-10-17T00:09:20.877Z,18.20
2018-10-17T00:11:50.064Z,18.10
2018-10-17T00:14:23.652Z,18.10
2018-10-17T00:16:53.525Z,18.10
2018-10-17T00:19:22.295Z,18.10
2018-10-17T00:21:51.093Z,18.00
2018-10-17T00:24:28.311Z,18.00
2018-10-17T00:26:57.357Z,18.00
2018-10-17T00:29:26.149Z,18.00
2018-10-17T00:31:55.864Z,18.00
2018-10-17T00:34:24.487Z,17.90
2018-10-17T00:36:54.385Z,17.90
2018-10-17T00:39:22.918Z,17.90
2018-10-17T00:41:52.869Z,17.90
2018-10-17T00:44:23.389Z,17.80
2018-10-17T00:46:52.673Z,17.80
2018-10-17T00:49:22.638Z,17.80
2018-10-17T00:51:51.172Z,17.80
2018-10-17T00:54:20.667Z,17.80
2018-10-17T00:56:49.583Z,17.70
2018-10-17T00:59:18.489Z,17.70
2018-10-17T01:01:47.275Z,17.70
2018-10-17T01:04:16.555Z,17.70
2018-10-17T01:06:45.515Z,17.60
2018-10-17T01:09:18.157Z,17.60
2018-10-17T01:11:47.171Z,17.60
2018-10-17T01:14:15.838Z,17.60
2018-10-17T01:16:45.675Z,17.50
2018-10-17T01:19:14.763Z,17.50
2018-10-17T01:21:44.759Z,17.50
2018-10-17T01:24:14.521Z,17.40
2018-10-17T01:26:43.257Z,17.40
2018-10-17T01:29:14.708Z,17.40
2018-10-17T01:31:43.877Z,17.40
2018-10-17T01:34:13.167Z,17.40
2018-10-17T01:36:43.301Z,17.30
2018-10-17T01:39:12.530Z,17.30
2018-10-17T01:41:41.722Z,17.30
2018-10-17T01:44:10.942Z,17.30
2018-10-17T01:46:40.782Z,17.20
2018-10-17T01:49:09.319Z,17.20
2018-10-17T01:51:38.184Z,17.20
2018-10-17T01:54:07.554Z,17.20
2018-10-17T01:56:36.191Z,17.20
2018-10-17T01:59:06.274Z,17.10
2018-10-17T02:01:35.882Z,17.10
2018-10-17T02:04:05.421Z,17.10
2018-10-17T02:06:34.401Z,17.00
2018-10-17T02:09:03.106Z,17.10
2018-10-17T02:11:32.661Z,17.00
2018-10-17T02:14:02.530Z,17.00
2018-10-17T02:16:31.576Z,17.00
2018-10-17T02:19:00.788Z,17.00
2018-10-17T02:21:30.498Z,16.90
2018-10-17T02:24:02.237Z,16.90
2018-10-17T02:26:34.644Z,16.90
2018-10-17T02:29:09.763Z,16.90
2018-10-17T02:31:42.613Z,16.80
2018-10-17T02:34:11.144Z,16.80
2018-10-17T02:36:41.764Z,16.80
2018-10-17T02:39:12.731Z,16.80
2018-10-17T02:41:45.124Z,16.70
2018-10-17T02:44:16.414Z,16.70
2018-10-17T02:46:47.330Z,16.70
2018-10-17T02:49:16.068Z,16.70
2018-10-17T02:51:44.709Z,16.70
2018-10-17T02:54:13.430Z,16.60
2018-10-17T02:56:42.830Z,16.60
2018-10-17T02:59:11.504Z,16.60
2018-10-17T03:01:42.499Z,16.50
2018-10-17T03:04:12.262Z,16.50
2018-10-17T03:06:47.856Z,16.50
2018-10-17T03:09:17.547Z,16.50
2018-10-17T03:11:47.796Z,16.50
2018-10-17T03:14:17.744Z,16.40
2018-10-17T03:16:46.446Z,16.40
2018-10-17T03:19:16.504Z,16.40
2018-10-17T03:21:45.896Z,16.40
2018-10-17T03:24:15.529Z,16.30
2018-10-17T03:26:45.813Z,16.30
2018-10-17T03:29:17.694Z,16.30
2018-10-17T03:31:46.910Z,16.30
2018-10-17T03:34:20.282Z,16.30
2018-10-17T03:36:51.702Z,16.30
2018-10-17T03:39:21.112Z,16.20
2018-10-17T03:41:50.907Z,16.20
2018-10-17T03:44:21.171Z,16.20
2018-10-17T03:46:52.372Z,16.20
2018-10-17T03:49:22.410Z,16.20
2018-10-17T03:51:51.267Z,16.10
2018-10-17T03:54:26.993Z,16.10
2018-10-17T03:56:57.326Z,16.10
2018-10-17T03:59:31.131Z,16.10
2018-10-17T04:02:00.025Z,16.00
2018-10-17T04:04:29.953Z,16.00
2018-10-17T04:07:00.887Z,16.00
2018-10-17T04:09:36.471Z,16.00
2018-10-17T04:12:05.814Z,16.00
2018-10-17T04:14:36.984Z,16.00
2018-10-17T04:17:09.330Z,15.90
2018-10-17T04:19:42.731Z,15.90
2018-10-17T04:22:11.821Z,15.90
2018-10-17T04:24:42.568Z,15.90
2018-10-17T04:27:20.130Z,15.90
2018-10-17T04:29:53.270Z,15.90
2018-10-17T04:32:24.482Z,15.80
2018-10-17T04:34:55.039Z,15.80
2018-10-17T04:37:26.571Z,15.80
2018-10-17T04:40:01.849Z,15.80
2018-10-17T04:42:30.619Z,15.80
2018-10-17T04:44:59.711Z,15.70
2018-10-17T04:47:32.122Z,15.70
2018-10-17T04:50:04.850Z,15.70
2018-10-17T04:52:33.905Z,15.70
2018-10-17T04:55:02.561Z,15.70
2018-10-17T04:57:31.827Z,15.70
2018-10-17T05:00:01.720Z,15.60
2018-10-17T05:02:31.403Z,15.60
2018-10-17T05:07:42.603Z,15.60
2018-10-17T05:10:19.712Z,15.60
2018-10-17T05:12:52.768Z,15.50
2018-10-17T05:15:21.493Z,15.50
2018-10-17T05:17:51.358Z,15.50
2018-10-17T05:20:21.087Z,15.50
2018-10-17T05:22:51.560Z,15.40
2018-10-17T05:25:20.290Z,15.40
2018-10-17T05:27:49.111Z,15.40
2018-10-17T05:30:18.431Z,15.40
2018-10-17T05:32:59.056Z,15.40
2018-10-17T05:35:29.325Z,15.40
2018-10-17T05:38:03.891Z,15.40
2018-10-17T05:40:37.317Z,15.30
2018-10-17T05:43:07.130Z,15.30
2018-10-17T05:45:39.071Z,15.30
2018-10-17T05:48:23.169Z,15.30
2018-10-17T05:51:00.202Z,15.30
2018-10-17T05:53:34.950Z,15.30
2018-10-17T05:56:15.714Z,15.20
2018-10-17T05:59:06.405Z,15.20
2018-10-17T06:01:46.814Z,15.20
2018-10-17T06:04:34.282Z,15.20
2018-10-17T06:07:19.230Z,15.20
2018-10-17T06:09:57.799Z,14.80
2018-10-17T06:12:28.720Z,14.80
2018-10-17T06:14:57.317Z,14.90
2018-10-17T06:17:27.043Z,14.90
2018-10-17T06:19:58.657Z,15.00
2018-10-17T06:22:42.386Z,15.00
2018-10-17T06:25:26.851Z,15.00
2018-10-17T06:28:06.432Z,15.00
2018-10-17T06:30:36.688Z,15.00
2018-10-17T06:33:11.718Z,15.00
2018-10-17T06:35:41.427Z,15.00
2018-10-17T06:38:10.137Z,15.00
2018-10-17T06:40:39.769Z,15.00
2018-10-17T06:43:08.311Z,15.00
2018-10-17T06:45:38.810Z,15.00
2018-10-17T06:48:07.286Z,15.00
2018-10-17T06:50:36.513Z,15.10
2018-10-17T06:53:06.154Z,15.10
2018-10-17T06:55:34.667Z,15.10
2018-10-17T06:58:03.592Z,15.10
2018-10-17T07:00:33.343Z,15.10
2018-10-17T07:03:02.958Z,15.10
2018-10-17T07:05:31.447Z,15.20
2018-10-17T07:08:00.352Z,15.10
2018-10-17T07:10:28.857Z,15.20
2018-10-17T07:12:57.895Z,15.20
2018-10-17T07:15:26.577Z,15.20
2018-10-17T07:17:57.509Z,15.20
2018-10-17T07:20:27.078Z,15.30
2018-10-17T07:22:57.147Z,15.30
2018-10-17T07:25:25.798Z,15.30
2018-10-17T07:27:54.321Z,15.30
2018-10-17T07:30:23.103Z,15.30
2018-10-17T07:32:51.884Z,15.40
2018-10-17T07:35:21.179Z,15.40
2018-10-17T07:37:49.815Z,15.40
2018-10-17T07:40:18.730Z,15.50
2018-10-17T07:42:47.635Z,15.50
2018-10-17T07:45:16.071Z,15.50
2018-10-17T07:47:45.037Z,15.60
2018-10-17T07:50:13.828Z,15.60
2018-10-17T07:52:42.487Z,15.60
2018-10-17T07:55:12.684Z,15.60
2018-10-17T07:57:42.082Z,15.70
2018-10-17T08:00:19.830Z,15.70
2018-10-17T08:02:51.446Z,15.60
2018-10-17T08:05:26.725Z,15.50
2018-10-17T08:08:00.247Z,15.60
2018-10-17T08:10:28.815Z,15.70
2018-10-17T08:12:57.665Z,15.70
2018-10-17T08:15:26.406Z,15.80
2018-10-17T08:17:59.149Z,15.90
2018-10-17T08:20:39.843Z,15.90
2018-10-17T08:23:17.932Z,15.90
2018-10-17T08:25:58.672Z,16.00
2018-10-17T08:28:39.479Z,16.00
2018-10-17T08:31:17.351Z,16.00
2018-10-17T08:33:58.198Z,16.10
2018-10-17T08:36:42.341Z,16.10
2018-10-17T08:39:13.347Z,16.20
2018-10-17T08:41:45.941Z,16.20
2018-10-17T08:44:16.873Z,16.20
2018-10-17T08:46:48.099Z,16.30
2018-10-17T08:49:17.873Z,16.30
2018-10-17T08:51:52.927Z,16.30
2018-10-17T08:54:22.141Z,16.40
2018-10-17T08:56:51.942Z,16.50
2018-10-17T08:59:21.647Z,16.60
2018-10-17T09:01:50.367Z,16.60
2018-10-17T09:04:20.214Z,16.70
2018-10-17T09:06:49.302Z,16.80
2018-10-17T09:09:20.578Z,16.80
2018-10-17T09:11:55.853Z,16.90
2018-10-17T09:14:26.274Z,17.00
2018-10-17T09:16:57.097Z,17.00
2018-10-17T09:19:40.028Z,17.10
2018-10-17T09:22:20.575Z,17.20
2018-10-17T09:24:49.106Z,17.30
2018-10-17T09:27:19.006Z,17.30
2018-10-17T09:29:50.494Z,17.40
2018-10-17T09:32:21.453Z,17.50
2018-10-17T09:34:50.443Z,17.60
2018-10-17T09:37:19.117Z,17.70
2018-10-17T09:39:47.725Z,17.70
2018-10-17T09:42:19.137Z,17.80
2018-10-17T09:44:50.423Z,17.90
2018-10-17T09:47:21.507Z,18.10
2018-10-17T09:49:53.567Z,18.10
2018-10-17T09:52:24.218Z,18.20
2018-10-17T09:54:53.764Z,18.20
2018-10-17T09:57:22.697Z,18.30
2018-10-17T09:59:53.150Z,18.50
2018-10-17T10:02:22.148Z,18.60
2018-10-17T10:04:52.163Z,18.60
2018-10-17T10:07:20.914Z,18.70
2018-10-17T10:09:50.421Z,18.70
2018-10-17T10:12:19.875Z,18.80
2018-10-17T10:14:50.740Z,18.90
2018-10-17T10:17:19.383Z,19.00
2018-10-17T10:19:47.946Z,19.10
2018-10-17T10:22:20.129Z,19.20
2018-10-17T10:24:50.515Z,19.30
2018-10-17T10:27:19.273Z,19.30
2018-10-17T10:29:48.480Z,19.40
2018-10-17T10:32:17.878Z,19.50
2018-10-17T10:34:47.136Z,19.50
2018-10-17T10:37:20.472Z,19.60
2018-10-17T10:39:49.174Z,19.70
2018-10-17T10:42:18.078Z,19.60
2018-10-17T10:44:46.568Z,19.70
2018-10-17T10:47:15.263Z,19.80
2018-10-17T10:49:43.809Z,19.80
2018-10-17T10:52:12.878Z,19.90
2018-10-17T10:54:41.696Z,20.00
2018-10-17T10:57:12.022Z,20.10
2018-10-17T10:59:40.930Z,20.20
2018-10-17T11:02:09.941Z,20.30
2018-10-17T11:04:38.903Z,20.30
2018-10-17T11:07:07.739Z,20.30
2018-10-17T11:09:36.648Z,20.30
2018-10-17T11:12:06.532Z,20.40
2018-10-17T11:14:35.264Z,20.50
2018-10-17T11:17:04.577Z,20.50
2018-10-17T11:19:33.615Z,20.60
2018-10-17T11:22:02.899Z,20.70
2018-10-17T11:24:31.525Z,20.70
2018-10-17T11:27:02.061Z,20.80
2018-10-17T11:29:30.515Z,20.80
2018-10-17T11:31:59.113Z,20.90
2018-10-17T11:34:28.531Z,20.90
2018-10-17T11:36:57.360Z,20.90
2018-10-17T11:39:27.248Z,21.00
2018-10-17T11:41:57.942Z,21.00
2018-10-17T11:44:29.401Z,21.10
2018-10-17T11:47:02.783Z,21.20
2018-10-17T11:49:32.357Z,21.20
2018-10-17T11:52:03.981Z,21.30
2018-10-17T11:54:33.086Z,21.40
2018-10-17T11:57:01.970Z,21.40
2018-10-17T11:59:32.529Z,21.50
2018-10-17T12:02:06.711Z,21.50
2018-10-17T12:04:35.891Z,21.60
2018-10-17T12:07:05.105Z,21.60
2018-10-17T12:09:34.751Z,21.60
2018-10-17T12:12:03.734Z,21.70
2018-10-17T12:14:39.030Z,21.70
2018-10-17T12:17:08.471Z,21.70
2018-10-17T12:19:37.349Z,21.80
2018-10-17T12:22:06.632Z,21.80
2018-10-17T12:24:37.316Z,21.80
2018-10-17T12:27:06.336Z,21.90
2018-10-17T12:29:34.999Z,21.90
2018-10-17T12:32:03.578Z,21.90
2018-10-17T12:34:37.603Z,21.90
2018-10-17T12:37:06.626Z,21.90
2018-10-17T12:39:35.729Z,21.90
2018-10-17T12:42:06.340Z,22.00
2018-10-17T12:44:34.936Z,22.00
2018-10-17T12:47:06.449Z,22.00
2018-10-17T12:49:35.195Z,22.00
2018-10-17T12:52:07.255Z,22.10
2018-10-17T12:54:36.069Z,22.10
2018-10-17T12:57:06.189Z,22.10
2018-10-17T12:59:35.315Z,22.20
2018-10-17T13:02:10.030Z,22.20
2018-10-17T13:04:42.540Z,22.20
2018-10-17T13:07:11.077Z,22.10
2018-10-17T13:09:44.164Z,22.00
2018-10-17T13:12:13.835Z,21.90
2018-10-17T13:14:44.667Z,21.80
2018-10-17T13:17:14.796Z,21.80
2018-10-17T13:19:44.666Z,21.80
2018-10-17T13:22:15.173Z,21.80
2018-10-17T13:24:47.910Z,21.70
2018-10-17T13:27:16.841Z,21.70
2018-10-17T13:30:09.090Z,21.70
2018-10-17T13:33:14.262Z,21.70
2018-10-17T13:48:06.557Z,21.60
2018-10-17T13:51:09.802Z,21.60
2018-10-17T13:54:00.945Z,21.60
2018-10-17T13:57:03.844Z,21.60
2018-10-17T14:00:10.737Z,21.60
2018-10-17T14:02:58.867Z,21.60
2018-10-17T14:17:40.937Z,21.60
2018-10-17T14:23:09.244Z,21.50
2018-10-17T14:28:43.822Z,21.50
2018-10-17T14:31:31.708Z,21.50
2018-10-17T14:34:22.524Z,21.40
2018-10-17T14:37:01.319Z,21.40
2018-10-17T14:39:37.136Z,21.40
2018-10-17T14:42:19.787Z,21.40
2018-10-17T14:44:50.436Z,21.50
2018-10-17T14:47:21.490Z,21.60
2018-10-17T14:49:54.818Z,21.70
2018-10-17T14:52:35.710Z,21.70
2018-10-17T14:55:22.523Z,21.80
2018-10-17T14:57:51.803Z,21.80
2018-10-17T15:00:27.688Z,21.80
2018-10-17T15:03:06.487Z,21.80
2018-10-17T15:05:37.450Z,21.90
2018-10-17T15:08:17.857Z,21.90
2018-10-17T15:11:04.677Z,21.90
2018-10-17T15:13:34.691Z,21.80
2018-10-17T15:16:03.471Z,21.90
2018-10-17T15:18:39.198Z,21.80
2018-10-17T15:21:19.449Z,21.90
2018-10-17T15:23:52.811Z,21.80
2018-10-17T15:29:14.900Z,21.80
2018-10-17T15:31:56.346Z,21.80
2018-10-17T15:34:31.575Z,21.80
2018-10-17T15:37:16.091Z,21.80
2018-10-17T15:39:49.649Z,21.90
2018-10-17T15:42:32.085Z,21.90
2018-10-17T15:45:14.686Z,21.80
2018-10-17T15:47:59.284Z,21.80
2018-10-17T15:50:44.620Z,21.80
2018-10-17T15:53:28.091Z,21.80
2018-10-17T15:56:05.902Z,21.80
2018-10-17T15:58:46.567Z,21.70
2018-10-17T16:01:34.151Z,21.70
2018-10-17T16:04:19.542Z,21.70
2018-10-17T16:07:09.417Z,21.70
2018-10-17T16:09:38.982Z,21.60
2018-10-17T16:12:08.628Z,21.40
2018-10-17T16:14:39.805Z,21.20
2018-10-17T16:17:09.426Z,21.10
2018-10-17T16:23:05.294Z,21.10
2018-10-17T16:25:36.874Z,21.10
2018-10-17T16:31:21.538Z,21.30
2018-10-17T16:33:54.821Z,21.30
2018-10-17T16:36:41.650Z,21.30
2018-10-17T16:40:20.938Z,21.30
2018-10-17T16:43:11.534Z,21.20
2018-10-17T16:45:57.041Z,21.20
2018-10-17T16:48:36.474Z,21.20
2018-10-17T16:51:34.032Z,21.20
2018-10-17T16:54:23.090Z,21.10
2018-10-17T17:08:53.132Z,21.00
2018-10-17T17:17:43.141Z,20.90
2018-10-17T17:23:23.435Z,20.80
2018-10-17T17:26:07.410Z,20.80
2018-10-17T17:28:54.188Z,20.80
2018-10-17T17:31:45.859Z,20.70
2018-10-17T17:37:20.699Z,20.70
2018-10-17T17:40:07.123Z,20.70
2018-10-17T17:45:37.184Z,20.60
2018-10-17T17:48:26.348Z,20.60
2018-10-17T17:56:54.911Z,20.50
2018-10-17T17:59:45.185Z,20.50
2018-10-17T18:02:27.384Z,20.50
2018-10-17T18:05:16.488Z,20.40
2018-10-17T18:07:48.007Z,20.40
2018-10-17T18:10:39.507Z,20.40
2018-10-17T18:13:18.488Z,20.40
2018-10-17T18:18:59.454Z,20.30
2018-10-17T18:21:44.469Z,20.30
2018-10-17T18:24:25.856Z,20.30
2018-10-17T18:27:14.178Z,20.30
2018-10-17T18:35:53.230Z,20.20
2018-10-17T18:38:48.716Z,20.20
2018-10-17T18:44:39.240Z,20.20
2018-10-17T18:47:38.990Z,20.20
2018-10-17T18:50:31.815Z,20.20
2018-10-17T18:53:29.262Z,20.10
2018-10-17T18:56:23.442Z,20.10
2018-10-17T19:02:15.908Z,20.10
2018-10-17T19:05:06.896Z,20.00
2018-10-17T19:07:56.317Z,20.00
2018-10-17T19:10:45.896Z,20.00
2018-10-17T19:13:36.364Z,20.00
2018-10-17T19:16:28.601Z,19.90
2018-10-17T19:19:12.884Z,19.90
2018-10-17T19:28:04.384Z,19.80
2018-10-17T19:30:57.152Z,19.80
2018-10-17T19:36:48.605Z,19.80
2018-10-17T19:39:55.615Z,19.70
2018-10-17T19:45:42.779Z,19.70
2018-10-17T19:48:34.708Z,19.70
2018-10-17T19:51:28.069Z,19.60
2018-10-17T19:57:44.700Z,19.60
2018-10-17T20:10:27.049Z,19.50
2018-10-17T20:25:54.786Z,19.30
2018-10-17T20:29:01.009Z,19.30
2018-10-17T20:44:20.506Z,19.20
2018-10-17T20:50:26.150Z,19.10
2018-10-17T20:52:54.419Z,19.10
2018-10-17T20:55:22.720Z,19.00
2018-10-17T20:57:50.997Z,19.00
2018-10-17T21:00:19.409Z,19.00
2018-10-17T21:02:47.677Z,19.00
2018-10-17T21:05:15.973Z,18.90
2018-10-17T21:07:44.252Z,18.90
2018-10-17T21:10:12.526Z,18.90
2018-10-17T21:12:40.835Z,18.90
2018-10-17T21:15:09.356Z,18.80
2018-10-17T21:17:37.620Z,18.80
2018-10-17T21:20:06.059Z,18.80
2018-10-17T21:22:34.284Z,18.80
2018-10-17T21:25:02.533Z,18.80
2018-10-17T21:27:30.833Z,18.70
2018-10-17T21:29:59.093Z,18.70
2018-10-17T21:32:27.377Z,18.70
2018-10-17T21:34:55.685Z,18.70
2018-10-17T21:37:23.961Z,18.60
2018-10-17T21:39:52.256Z,18.60
2018-10-17T21:42:20.529Z,18.50
2018-10-17T21:44:48.795Z,18.50
2018-10-17T21:47:17.140Z,18.50
2018-10-17T21:49:45.350Z,18.50
2018-10-17T21:52:13.638Z,18.50
2018-10-17T21:54:41.896Z,18.40
2018-10-17T21:57:10.213Z,18.40
2018-10-17T21:59:38.483Z,18.40
2018-10-17T22:02:06.834Z,18.40
2018-10-17T22:04:35.047Z,18.40
2018-10-17T22:07:03.345Z,18.30
2018-10-17T22:09:31.665Z,18.30
2018-10-17T22:11:59.932Z,18.30
2018-10-17T22:14:28.561Z,18.20
2018-10-17T22:17:02.220Z,18.30
2018-10-17T22:19:30.473Z,18.20
2018-10-17T22:21:58.754Z,18.20
2018-10-17T22:24:27.052Z,18.20
2018-10-17T22:26:55.349Z,18.20
2018-10-17T22:29:23.670Z,18.10
2018-10-17T22:31:52.125Z,18.10
2018-10-17T22:34:20.400Z,18.10
2018-10-17T22:36:48.637Z,18.10
2018-10-17T22:39:16.928Z,18.00
2018-10-17T22:41:45.857Z,18.00
2018-10-17T22:44:14.299Z,18.00
2018-10-17T22:46:42.466Z,18.00
2018-10-17T22:49:11.213Z,18.00
2018-10-17T22:51:39.973Z,18.00
2018-10-17T22:54:08.821Z,18.00
2018-10-17T22:56:37.886Z,18.00
2018-10-17T22:59:06.473Z,17.90
2018-10-17T23:01:35.101Z,17.90
2018-10-17T23:04:03.364Z,17.90
2018-10-17T23:06:31.640Z,17.90
2018-10-17T23:08:59.903Z,17.80
2018-10-17T23:11:28.193Z,17.80
2018-10-17T23:13:56.566Z,17.80
2018-10-17T23:16:24.801Z,17.80
2018-10-17T23:18:53.132Z,17.80
2018-10-17T23:21:21.445Z,17.70
2018-10-17T23:23:49.709Z,17.70
2018-10-17T23:26:18.205Z,17.70
2018-10-17T23:28:46.337Z,17.60
2018-10-17T23:31:14.612Z,17.60
2018-10-17T23:33:42.922Z,17.60
2018-10-17T23:36:11.164Z,17.60
2018-10-17T23:38:39.435Z,17.60
2018-10-17T23:41:07.696Z,17.50
2018-10-17T23:43:35.986Z,17.50
2018-10-17T23:46:04.297Z,17.50
2018-10-17T23:48:32.595Z,17.50
2018-10-17T23:51:00.917Z,17.50
2018-10-17T23:53:29.193Z,17.40
2018-10-17T23:55:57.557Z,17.40
2018-10-17T23:58:25.808Z,17.40
